sensor_id;sensor_type;location;lat;lon;timestamp;pressure;altitude;pressure_sealevel;temperature;humidity
59055;BME280;44845;51.444;7.460;2023-09-12T00:02:05;99469.03;;;20.12;96.62
59055;BME280;44845;51.444;7.460;2023-09-12T00:04:30;99470.44;;;20.02;97.16
59055;BME280;44845;51.444;7.460;2023-09-12T00:06:55;99461.06;;;19.95;96.94
59055;BME280;44845;51.444;7.460;2023-09-12T00:09:21;99460.34;;;19.91;97.06
59055;BME280;44845;51.444;7.460;2023-09-12T00:11:46;99449.13;;;19.86;97.60
59055;BME280;44845;51.444;7.460;2023-09-12T00:14:15;99449.13;;;19.86;97.64
59055;BME280;44845;51.444;7.460;2023-09-12T00:16:40;99449.03;;;19.87;97.65
59055;BME280;44845;51.444;7.460;2023-09-12T00:19:06;99457.50;;;19.78;98.32
59055;BME280;44845;51.444;7.460;2023-09-12T00:21:31;99460.56;;;19.70;98.83
59055;BME280;44845;51.444;7.460;2023-09-12T00:23:57;99468.28;;;19.75;98.45
59055;BME280;44845;51.444;7.460;2023-09-12T00:26:22;99471.97;;;19.72;98.80
59055;BME280;44845;51.444;7.460;2023-09-12T00:28:47;99479.88;;;19.74;98.42
59055;BME280;44845;51.444;7.460;2023-09-12T00:31:13;99464.88;;;19.73;98.43
59055;BME280;44845;51.444;7.460;2023-09-12T00:33:38;99459.28;;;19.77;98.10
59055;BME280;44845;51.444;7.460;2023-09-12T00:36:04;99470.28;;;19.71;98.64
59055;BME280;44845;51.444;7.460;2023-09-12T00:38:29;99467.53;;;19.73;97.87
59055;BME280;44845;51.444;7.460;2023-09-12T00:40:55;99459.81;;;19.84;96.80
59055;BME280;44845;51.444;7.460;2023-09-12T00:43:20;99468.19;;;19.76;96.73
59055;BME280;44845;51.444;7.460;2023-09-12T00:45:45;99474.53;;;19.74;96.84
59055;BME280;44845;51.444;7.460;2023-09-12T00:48:12;99463.38;;;19.67;96.35
59055;BME280;44845;51.444;7.460;2023-09-12T00:50:38;99453.59;;;19.67;96.35
59055;BME280;44845;51.444;7.460;2023-09-12T00:53:05;99456.25;;;19.67;97.01
59055;BME280;44845;51.444;7.460;2023-09-12T00:55:34;99473.47;;;19.60;97.21
59055;BME280;44845;51.444;7.460;2023-09-12T00:58:02;99481.53;;;19.58;97.58
59055;BME280;44845;51.444;7.460;2023-09-12T01:00:27;99483.19;;;19.61;97.04
59055;BME280;44845;51.444;7.460;2023-09-12T01:02:53;99494.59;;;19.63;96.32
59055;BME280;44845;51.444;7.460;2023-09-12T01:05:20;99498.81;;;19.67;95.94
59055;BME280;44845;51.444;7.460;2023-09-12T01:07:47;99510.72;;;19.60;96.65
59055;BME280;44845;51.444;7.460;2023-09-12T01:10:12;99509.84;;;19.60;96.36
59055;BME280;44845;51.444;7.460;2023-09-12T01:12:38;99514.63;;;19.53;97.26
59055;BME280;44845;51.444;7.460;2023-09-12T01:15:04;99520.09;;;19.50;97.67
59055;BME280;44845;51.444;7.460;2023-09-12T01:17:33;99516.50;;;19.51;96.90
59055;BME280;44845;51.444;7.460;2023-09-12T01:20:00;99502.44;;;19.49;96.70
59055;BME280;44845;51.444;7.460;2023-09-12T01:28:34;99476.13;;;19.42;94.97
59055;BME280;44845;51.444;7.460;2023-09-12T01:31:00;99464.00;;;19.54;94.26
59055;BME280;44845;51.444;7.460;2023-09-12T01:33:28;99459.78;;;19.32;94.58
59055;BME280;44845;51.444;7.460;2023-09-12T01:35:53;99461.00;;;19.27;94.61
59055;BME280;44845;51.444;7.460;2023-09-12T01:38:20;99447.38;;;19.33;93.57
59055;BME280;44845;51.444;7.460;2023-09-12T01:40:49;99437.69;;;19.32;93.29
59055;BME280;44845;51.444;7.460;2023-09-12T01:43:16;99429.00;;;19.28;92.85
59055;BME280;44845;51.444;7.460;2023-09-12T01:45:43;99422.19;;;19.22;93.31
59055;BME280;44845;51.444;7.460;2023-09-12T01:48:11;99406.69;;;19.13;93.79
59055;BME280;44845;51.444;7.460;2023-09-12T01:50:36;99422.56;;;19.15;92.21
59055;BME280;44845;51.444;7.460;2023-09-12T01:53:02;99427.94;;;19.13;92.31
59055;BME280;44845;51.444;7.460;2023-09-12T01:55:28;99438.91;;;19.07;92.70
59055;BME280;44845;51.444;7.460;2023-09-12T01:57:54;99450.59;;;19.02;92.35
59055;BME280;44845;51.444;7.460;2023-09-12T02:00:22;99453.44;;;19.17;92.07
59055;BME280;44845;51.444;7.460;2023-09-12T02:02:47;99444.56;;;19.18;91.41
59055;BME280;44845;51.444;7.460;2023-09-12T02:05:17;99441.91;;;19.18;91.28
59055;BME280;44845;51.444;7.460;2023-09-12T02:07:44;99448.63;;;19.43;89.82
59055;BME280;44845;51.444;7.460;2023-09-12T02:10:10;99437.69;;;19.32;90.08
59055;BME280;44845;51.444;7.460;2023-09-12T02:12:36;99431.50;;;19.31;90.67
59055;BME280;44845;51.444;7.460;2023-09-12T02:15:01;99433.84;;;19.38;89.89
59055;BME280;44845;51.444;7.460;2023-09-12T02:17:27;99440.94;;;19.37;89.98
59055;BME280;44845;51.444;7.460;2023-09-12T02:19:52;99444.22;;;19.42;89.54
59055;BME280;44845;51.444;7.460;2023-09-12T02:22:18;99440.03;;;19.38;90.68
59055;BME280;44845;51.444;7.460;2023-09-12T02:24:43;99444.94;;;19.46;89.38
59055;BME280;44845;51.444;7.460;2023-09-12T02:27:08;99457.06;;;19.34;90.63
59055;BME280;44845;51.444;7.460;2023-09-12T02:29:34;99461.53;;;19.33;90.89
59055;BME280;44845;51.444;7.460;2023-09-12T02:31:59;99473.94;;;19.33;91.18
59055;BME280;44845;51.444;7.460;2023-09-12T02:34:24;99481.78;;;19.36;91.29
59055;BME280;44845;51.444;7.460;2023-09-12T02:36:50;99484.44;;;19.36;91.34
59055;BME280;44845;51.444;7.460;2023-09-12T02:39:16;99478.34;;;19.34;91.94
59055;BME280;44845;51.444;7.460;2023-09-12T02:41:41;99471.38;;;19.31;91.86
59055;BME280;44845;51.444;7.460;2023-09-12T02:44:06;99467.78;;;19.32;90.77
59055;BME280;44845;51.444;7.460;2023-09-12T02:46:32;99467.53;;;19.37;90.41
59055;BME280;44845;51.444;7.460;2023-09-12T02:48:57;99472.53;;;19.26;91.37
59055;BME280;44845;51.444;7.460;2023-09-12T02:51:23;99478.19;;;19.19;92.04
59055;BME280;44845;51.444;7.460;2023-09-12T02:53:49;99470.44;;;19.32;91.47
59055;BME280;44845;51.444;7.460;2023-09-12T02:56:15;99473.81;;;19.36;91.07
59055;BME280;44845;51.444;7.460;2023-09-12T02:58:40;99472.84;;;19.37;91.17
59055;BME280;44845;51.444;7.460;2023-09-12T03:01:05;99461.91;;;19.43;90.91
59055;BME280;44845;51.444;7.460;2023-09-12T03:03:31;99465.06;;;19.34;91.38
59055;BME280;44845;51.444;7.460;2023-09-12T03:06:01;99467.84;;;19.31;92.20
59055;BME280;44845;51.444;7.460;2023-09-12T03:08:27;99461.81;;;19.27;92.31
59055;BME280;44845;51.444;7.460;2023-09-12T03:10:56;99464.56;;;19.26;92.61
59055;BME280;44845;51.444;7.460;2023-09-12T03:13:24;99461.69;;;19.30;92.30
59055;BME280;44845;51.444;7.460;2023-09-12T03:15:50;99468.00;;;19.28;92.56
59055;BME280;44845;51.444;7.460;2023-09-12T03:18:16;99471.44;;;19.30;92.17
59055;BME280;44845;51.444;7.460;2023-09-12T03:20:43;99476.75;;;19.30;92.67
59055;BME280;44845;51.444;7.460;2023-09-12T03:23:08;99483.66;;;19.34;92.36
59055;BME280;44845;51.444;7.460;2023-09-12T03:25:37;99487.84;;;19.20;93.74
59055;BME280;44845;51.444;7.460;2023-09-12T03:28:07;99489.78;;;19.17;94.12
59055;BME280;44845;51.444;7.460;2023-09-12T03:30:36;99486.41;;;19.13;94.46
59055;BME280;44845;51.444;7.460;2023-09-12T03:33:02;99473.31;;;19.28;93.51
59055;BME280;44845;51.444;7.460;2023-09-12T03:35:29;99477.22;;;19.20;94.06
59055;BME280;44845;51.444;7.460;2023-09-12T03:37:55;99480.44;;;19.27;93.20
59055;BME280;44845;51.444;7.460;2023-09-12T03:40:20;99486.75;;;19.24;93.28
59055;BME280;44845;51.444;7.460;2023-09-12T03:42:46;99472.00;;;19.19;94.23
59055;BME280;44845;51.444;7.460;2023-09-12T03:45:11;99454.53;;;19.13;94.39
59055;BME280;44845;51.444;7.460;2023-09-12T03:47:37;99441.38;;;19.10;94.97
59055;BME280;44845;51.444;7.460;2023-09-12T03:50:02;99413.00;;;19.10;94.88
59055;BME280;44845;51.444;7.460;2023-09-12T03:52:28;99410.59;;;19.06;95.12
59055;BME280;44845;51.444;7.460;2023-09-12T03:54:54;99398.09;;;19.08;95.21
59055;BME280;44845;51.444;7.460;2023-09-12T03:57:19;99383.53;;;19.15;94.39
59055;BME280;44845;51.444;7.460;2023-09-12T03:59:45;99374.78;;;19.13;94.24
59055;BME280;44845;51.444;7.460;2023-09-12T04:02:12;99384.75;;;19.09;93.92
59055;BME280;44845;51.444;7.460;2023-09-12T04:04:39;99390.75;;;19.13;93.03
59055;BME280;44845;51.444;7.460;2023-09-12T04:07:05;99386.19;;;19.15;92.74
59055;BME280;44845;51.444;7.460;2023-09-12T04:09:30;99384.50;;;19.14;92.63
59055;BME280;44845;51.444;7.460;2023-09-12T04:11:56;99383.88;;;19.09;91.88
59055;BME280;44845;51.444;7.460;2023-09-12T04:14:21;99389.97;;;19.11;91.42
59055;BME280;44845;51.444;7.460;2023-09-12T04:16:47;99384.03;;;19.06;90.88
59055;BME280;44845;51.444;7.460;2023-09-12T04:19:15;99394.78;;;19.02;91.00
59055;BME280;44845;51.444;7.460;2023-09-12T04:21:41;99403.25;;;19.11;90.24
59055;BME280;44845;51.444;7.460;2023-09-12T04:24:07;99399.66;;;19.12;90.33
59055;BME280;44845;51.444;7.460;2023-09-12T04:26:32;99399.50;;;19.15;90.97
59055;BME280;44845;51.444;7.460;2023-09-12T04:28:58;99400.44;;;19.14;90.80
59055;BME280;44845;51.444;7.460;2023-09-12T04:31:23;99400.63;;;19.29;89.97
59055;BME280;44845;51.444;7.460;2023-09-12T04:33:52;99386.28;;;19.13;90.82
59055;BME280;44845;51.444;7.460;2023-09-12T04:36:18;99385.75;;;19.07;91.75
59055;BME280;44845;51.444;7.460;2023-09-12T04:38:44;99385.19;;;19.00;92.81
59055;BME280;44845;51.444;7.460;2023-09-12T04:41:11;99385.13;;;19.01;92.96
59055;BME280;44845;51.444;7.460;2023-09-12T04:43:40;99392.94;;;19.05;93.15
59055;BME280;44845;51.444;7.460;2023-09-12T04:46:05;99388.66;;;19.02;93.33
59055;BME280;44845;51.444;7.460;2023-09-12T04:48:31;99378.94;;;19.01;93.62
59055;BME280;44845;51.444;7.460;2023-09-12T04:50:56;99385.19;;;19.00;93.86
59055;BME280;44845;51.444;7.460;2023-09-12T04:53:22;99386.78;;;19.04;93.55
59055;BME280;44845;51.444;7.460;2023-09-12T04:55:47;99384.16;;;19.02;93.42
59055;BME280;44845;51.444;7.460;2023-09-12T04:58:13;99384.34;;;18.99;92.80
59055;BME280;44845;51.444;7.460;2023-09-12T05:00:39;99380.97;;;18.96;93.93
59055;BME280;44845;51.444;7.460;2023-09-12T05:03:05;99375.59;;;18.97;94.02
59055;BME280;44845;51.444;7.460;2023-09-12T05:05:30;99383.63;;;18.96;94.39
59055;BME280;44845;51.444;7.460;2023-09-12T05:07:55;99380.91;;;18.97;94.48
59055;BME280;44845;51.444;7.460;2023-09-12T05:10:21;99387.84;;;19.00;94.31
59055;BME280;44845;51.444;7.460;2023-09-12T05:12:46;99383.16;;;19.05;94.14
59055;BME280;44845;51.444;7.460;2023-09-12T05:15:11;99373.25;;;19.09;93.83
59055;BME280;44845;51.444;7.460;2023-09-12T05:17:37;99367.94;;;19.09;94.35
59055;BME280;44845;51.444;7.460;2023-09-12T05:20:03;99369.09;;;19.03;94.56
59055;BME280;44845;51.444;7.460;2023-09-12T05:22:30;99373.34;;;19.07;94.43
59055;BME280;44845;51.444;7.460;2023-09-12T05:24:55;99384.66;;;19.11;93.90
59055;BME280;44845;51.444;7.460;2023-09-12T05:27:20;99374.94;;;19.10;94.15
59055;BME280;44845;51.444;7.460;2023-09-12T05:29:46;99390.88;;;19.10;94.52
59055;BME280;44845;51.444;7.460;2023-09-12T05:32:11;99392.78;;;19.08;94.11
59055;BME280;44845;51.444;7.460;2023-09-12T05:34:36;99399.03;;;19.07;94.36
59055;BME280;44845;51.444;7.460;2023-09-12T05:37:02;99396.19;;;19.10;93.28
59055;BME280;44845;51.444;7.460;2023-09-12T05:39:28;99393.72;;;19.07;93.26
59055;BME280;44845;51.444;7.460;2023-09-12T05:41:53;99375.13;;;19.07;93.46
59055;BME280;44845;51.444;7.460;2023-09-12T05:44:19;99378.72;;;19.06;93.89
59055;BME280;44845;51.444;7.460;2023-09-12T05:46:45;99399.97;;;19.06;93.79
59055;BME280;44845;51.444;7.460;2023-09-12T05:49:12;99424.38;;;19.14;93.88
59055;BME280;44845;51.444;7.460;2023-09-12T05:51:37;99395.13;;;19.14;94.05
59055;BME280;44845;51.444;7.460;2023-09-12T05:54:02;99343.56;;;19.18;92.33
59055;BME280;44845;51.444;7.460;2023-09-12T05:56:28;99335.09;;;19.10;94.85
59055;BME280;44845;51.444;7.460;2023-09-12T05:58:54;99354.66;;;18.91;98.55
59055;BME280;44845;51.444;7.460;2023-09-12T06:01:19;99372.00;;;18.98;100.00
59055;BME280;44845;51.444;7.460;2023-09-12T06:03:44;99393.38;;;18.95;100.00
59055;BME280;44845;51.444;7.460;2023-09-12T06:06:10;99399.66;;;18.94;100.00
59055;BME280;44845;51.444;7.460;2023-09-12T06:08:35;99407.31;;;19.00;100.00
59055;BME280;44845;51.444;7.460;2023-09-12T06:11:00;99416.00;;;19.04;100.00
59055;BME280;44845;51.444;7.460;2023-09-12T06:13:26;99421.06;;;19.09;100.00
59055;BME280;44845;51.444;7.460;2023-09-12T06:15:51;99439.44;;;19.13;100.00
59055;BME280;44845;51.444;7.460;2023-09-12T06:18:16;99454.25;;;19.19;100.00
59055;BME280;44845;51.444;7.460;2023-09-12T06:20:43;99456.25;;;19.14;100.00
59055;BME280;44845;51.444;7.460;2023-09-12T06:23:08;99450.66;;;19.20;100.00
59055;BME280;44845;51.444;7.460;2023-09-12T06:25:35;99461.56;;;19.14;100.00
59055;BME280;44845;51.444;7.460;2023-09-12T06:28:00;99460.16;;;19.07;100.00
59055;BME280;44845;51.444;7.460;2023-09-12T06:30:26;99458.41;;;19.06;100.00
59055;BME280;44845;51.444;7.460;2023-09-12T06:32:51;99454.97;;;19.04;100.00
59055;BME280;44845;51.444;7.460;2023-09-12T06:35:16;99452.81;;;19.12;100.00
59055;BME280;44845;51.444;7.460;2023-09-12T06:37:42;99458.41;;;19.06;100.00
59055;BME280;44845;51.444;7.460;2023-09-12T06:40:07;99461.16;;;19.04;100.00
59055;BME280;44845;51.444;7.460;2023-09-12T06:42:33;99447.09;;;19.02;100.00
59055;BME280;44845;51.444;7.460;2023-09-12T06:44:59;99456.88;;;19.01;100.00
59055;BME280;44845;51.444;7.460;2023-09-12T06:47:24;99458.88;;;18.96;100.00
59055;BME280;44845;51.444;7.460;2023-09-12T06:49:49;99468.78;;;18.93;100.00
59055;BME280;44845;51.444;7.460;2023-09-12T06:52:15;99465.94;;;18.97;100.00
59055;BME280;44845;51.444;7.460;2023-09-12T06:54:41;99482.16;;;18.91;100.00
59055;BME280;44845;51.444;7.460;2023-09-12T06:57:07;99498.97;;;18.91;100.00
59055;BME280;44845;51.444;7.460;2023-09-12T06:59:32;99531.53;;;18.95;100.00
59055;BME280;44845;51.444;7.460;2023-09-12T07:01:58;99536.25;;;18.90;100.00
59055;BME280;44845;51.444;7.460;2023-09-12T07:04:24;99545.03;;;18.90;100.00
59055;BME280;44845;51.444;7.460;2023-09-12T07:06:50;99550.66;;;18.84;100.00
59055;BME280;44845;51.444;7.460;2023-09-12T07:09:16;99534.00;;;18.80;100.00
59055;BME280;44845;51.444;7.460;2023-09-12T07:11:42;99497.00;;;18.58;100.00
59055;BME280;44845;51.444;7.460;2023-09-12T07:14:10;99485.34;;;18.41;100.00
59055;BME280;44845;51.444;7.460;2023-09-12T07:16:36;99508.31;;;18.62;100.00
59055;BME280;44845;51.444;7.460;2023-09-12T07:19:02;99508.00;;;18.68;100.00
59055;BME280;44845;51.444;7.460;2023-09-12T07:21:28;99508.97;;;18.67;100.00
59055;BME280;44845;51.444;7.460;2023-09-12T07:23:54;99498.56;;;18.62;100.00
59055;BME280;44845;51.444;7.460;2023-09-12T07:26:20;99498.56;;;18.62;100.00
59055;BME280;44845;51.444;7.460;2023-09-12T07:28:45;99488.38;;;18.72;100.00
59055;BME280;44845;51.444;7.460;2023-09-12T07:31:11;99483.84;;;18.74;100.00
59055;BME280;44845;51.444;7.460;2023-09-12T07:33:36;99480.09;;;18.78;100.00
59055;BME280;44845;51.444;7.460;2023-09-12T07:36:02;99474.72;;;18.80;100.00
59055;BME280;44845;51.444;7.460;2023-09-12T07:38:28;99486.19;;;18.80;100.00
59055;BME280;44845;51.444;7.460;2023-09-12T07:40:56;99482.47;;;18.85;100.00
59055;BME280;44845;51.444;7.460;2023-09-12T07:43:21;99474.97;;;18.93;100.00
59055;BME280;44845;51.444;7.460;2023-09-12T07:45:46;99465.44;;;18.89;100.00
59055;BME280;44845;51.444;7.460;2023-09-12T07:48:12;99450.81;;;18.98;100.00
59055;BME280;44845;51.444;7.460;2023-09-12T07:50:37;99446.94;;;19.05;100.00
59055;BME280;44845;51.444;7.460;2023-09-12T07:53:04;99460.69;;;19.13;100.00
59055;BME280;44845;51.444;7.460;2023-09-12T07:55:30;99485.16;;;19.22;100.00
59055;BME280;44845;51.444;7.460;2023-09-12T07:57:59;99491.69;;;19.32;100.00
59055;BME280;44845;51.444;7.460;2023-09-12T08:00:25;99491.53;;;19.35;100.00
59055;BME280;44845;51.444;7.460;2023-09-12T08:02:50;99476.59;;;19.33;100.00
59055;BME280;44845;51.444;7.460;2023-09-12T08:05:15;99476.94;;;19.27;100.00
59055;BME280;44845;51.444;7.460;2023-09-12T08:07:41;99471.19;;;19.17;100.00
59055;BME280;44845;51.444;7.460;2023-09-12T08:10:06;99463.28;;;19.15;100.00
59055;BME280;44845;51.444;7.460;2023-09-12T08:12:32;99457.31;;;19.29;100.00
59055;BME280;44845;51.444;7.460;2023-09-12T08:14:57;99454.25;;;19.19;100.00
59055;BME280;44845;51.444;7.460;2023-09-12T08:17:24;99468.00;;;19.28;100.00
59055;BME280;44845;51.444;7.460;2023-09-12T08:19:49;99474.50;;;19.22;100.00
59055;BME280;44845;51.444;7.460;2023-09-12T08:22:15;99477.84;;;19.26;100.00
59055;BME280;44845;51.444;7.460;2023-09-12T08:24:40;99478.41;;;19.32;100.00
59055;BME280;44845;51.444;7.460;2023-09-12T08:27:06;99474.28;;;19.27;100.00
59055;BME280;44845;51.444;7.460;2023-09-12T08:29:34;99475.97;;;19.28;100.00
59055;BME280;44845;51.444;7.460;2023-09-12T08:32:00;99484.66;;;19.31;100.00
59055;BME280;44845;51.444;7.460;2023-09-12T08:34:25;99475.97;;;19.28;100.00
59055;BME280;44845;51.444;7.460;2023-09-12T08:36:51;99487.25;;;19.33;100.00
59055;BME280;44845;51.444;7.460;2023-09-12T08:39:27;99488.66;;;19.40;100.00
59055;BME280;44845;51.444;7.460;2023-09-12T08:41:53;99490.38;;;19.41;100.00
59055;BME280;44845;51.444;7.460;2023-09-12T08:44:20;99483.97;;;19.45;100.00
59055;BME280;44845;51.444;7.460;2023-09-12T08:46:47;99486.53;;;19.47;100.00
59055;BME280;44845;51.444;7.460;2023-09-12T08:49:12;99486.47;;;19.49;100.00
59055;BME280;44845;51.444;7.460;2023-09-12T08:51:38;99492.47;;;19.52;100.00
59055;BME280;44845;51.444;7.460;2023-09-12T08:54:05;99502.56;;;19.45;100.00
59055;BME280;44845;51.444;7.460;2023-09-12T08:56:32;99502.81;;;19.58;100.00
59055;BME280;44845;51.444;7.460;2023-09-12T08:58:58;99506.41;;;19.57;100.00
59055;BME280;44845;51.444;7.460;2023-09-12T09:01:25;99506.00;;;19.65;100.00
59055;BME280;44845;51.444;7.460;2023-09-12T09:03:53;99501.88;;;19.60;100.00
59055;BME280;44845;51.444;7.460;2023-09-12T09:06:19;99489.28;;;19.63;100.00
59055;BME280;44845;51.444;7.460;2023-09-12T09:08:48;99496.25;;;19.66;100.00
59055;BME280;44845;51.444;7.460;2023-09-12T09:11:13;99492.56;;;19.68;100.00
59055;BME280;44845;51.444;7.460;2023-09-12T09:13:39;99499.59;;;19.69;100.00
59055;BME280;44845;51.444;7.460;2023-09-12T09:16:15;99508.44;;;19.70;100.00
59055;BME280;44845;51.444;7.460;2023-09-12T09:18:54;99504.91;;;19.69;99.30
59055;BME280;44845;51.444;7.460;2023-09-12T09:21:21;99498.47;;;19.74;100.00
59055;BME280;44845;51.444;7.460;2023-09-12T09:23:49;99497.56;;;19.75;99.55
59055;BME280;44845;51.444;7.460;2023-09-12T09:26:15;99504.59;;;19.76;99.68
59055;BME280;44845;51.444;7.460;2023-09-12T09:28:40;99496.91;;;19.87;100.00
59055;BME280;44845;51.444;7.460;2023-09-12T09:31:10;99495.03;;;19.89;100.00
59055;BME280;44845;51.444;7.460;2023-09-12T09:33:36;99493.88;;;19.77;96.75
59055;BME280;44845;51.444;7.460;2023-09-12T09:36:04;99501.00;;;19.77;95.13
59055;BME280;44845;51.444;7.460;2023-09-12T09:38:30;99501.13;;;19.74;94.00
59055;BME280;44845;51.444;7.460;2023-09-12T09:40:55;99494.41;;;19.66;96.13
59055;BME280;44845;51.444;7.460;2023-09-12T09:43:21;99502.00;;;19.74;97.07
59055;BME280;44845;51.444;7.460;2023-09-12T09:45:47;99501.31;;;19.71;96.01
59055;BME280;44845;51.444;7.460;2023-09-12T09:48:19;99501.09;;;19.75;96.35
59055;BME280;44845;51.444;7.460;2023-09-12T09:50:45;99498.47;;;19.91;96.28
59055;BME280;44845;51.444;7.460;2023-09-12T09:53:10;99497.84;;;19.86;96.70
59055;BME280;44845;51.444;7.460;2023-09-12T09:55:36;99499.88;;;19.81;96.79
59055;BME280;44845;51.444;7.460;2023-09-12T09:58:02;99505.13;;;19.83;97.37
59055;BME280;44845;51.444;7.460;2023-09-12T10:00:29;99513.38;;;19.78;98.66
59055;BME280;44845;51.444;7.460;2023-09-12T10:02:55;99508.19;;;19.75;97.28
59055;BME280;44845;51.444;7.460;2023-09-12T10:05:21;99520.84;;;19.87;96.39
59055;BME280;44845;51.444;7.460;2023-09-12T10:07:48;99523.19;;;19.94;96.59
59055;BME280;44845;51.444;7.460;2023-09-12T10:10:16;99526.47;;;19.81;96.76
59055;BME280;44845;51.444;7.460;2023-09-12T10:12:48;99529.63;;;19.89;95.09
59055;BME280;44845;51.444;7.460;2023-09-12T10:15:14;99536.34;;;19.97;94.66
59055;BME280;44845;51.444;7.460;2023-09-12T10:17:42;99530.00;;;19.99;93.80
59055;BME280;44845;51.444;7.460;2023-09-12T10:20:15;99530.88;;;20.18;94.03
59055;BME280;44845;51.444;7.460;2023-09-12T10:22:49;99519.88;;;20.24;91.83
59055;BME280;44845;51.444;7.460;2023-09-12T10:25:17;99521.09;;;20.34;90.91
59055;BME280;44845;51.444;7.460;2023-09-12T10:27:42;99527.03;;;20.40;91.40
59055;BME280;44845;51.444;7.460;2023-09-12T10:30:08;99521.47;;;20.44;92.06
59055;BME280;44845;51.444;7.460;2023-09-12T10:32:34;99521.22;;;20.49;91.66
59055;BME280;44845;51.444;7.460;2023-09-12T10:35:02;99525.41;;;20.53;93.26
59055;BME280;44845;51.444;7.460;2023-09-12T10:37:29;99525.94;;;20.44;91.83
59055;BME280;44845;51.444;7.460;2023-09-12T10:39:58;99523.25;;;20.44;91.75
59055;BME280;44845;51.444;7.460;2023-09-12T10:42:27;99525.06;;;20.43;92.86
59055;BME280;44845;51.444;7.460;2023-09-12T10:44:54;99526.38;;;20.52;91.93
59055;BME280;44845;51.444;7.460;2023-09-12T10:47:20;99519.31;;;20.51;91.50
59055;BME280;44845;51.444;7.460;2023-09-12T10:49:46;99520.84;;;20.55;92.48
59055;BME280;44845;51.444;7.460;2023-09-12T10:52:26;99514.59;;;20.56;90.94
59055;BME280;44845;51.444;7.460;2023-09-12T10:54:52;99511.78;;;20.59;91.39
59055;BME280;44845;51.444;7.460;2023-09-12T10:57:17;99521.81;;;20.54;90.70
59055;BME280;44845;51.444;7.460;2023-09-12T11:02:31;99507.53;;;20.55;91.02
59055;BME280;44845;51.444;7.460;2023-09-12T11:04:58;99515.72;;;20.52;91.61
59055;BME280;44845;51.444;7.460;2023-09-12T11:12:40;99505.66;;;20.57;88.14
59055;BME280;44845;51.444;7.460;2023-09-12T11:15:06;99503.25;;;20.53;88.17
59055;BME280;44845;51.444;7.460;2023-09-12T11:17:37;99501.03;;;20.61;88.41
59055;BME280;44845;51.444;7.460;2023-09-12T11:20:04;99497.66;;;20.57;89.38
59055;BME280;44845;51.444;7.460;2023-09-12T11:22:36;99500.16;;;20.61;87.74
59055;BME280;44845;51.444;7.460;2023-09-12T11:25:05;99491.56;;;20.55;88.55
59055;BME280;44845;51.444;7.460;2023-09-12T11:30:16;99496.38;;;20.65;88.82
59055;BME280;44845;51.444;7.460;2023-09-12T11:32:44;99495.88;;;20.74;88.67
59055;BME280;44845;51.444;7.460;2023-09-12T11:35:10;99490.00;;;20.67;89.79
59055;BME280;44845;51.444;7.460;2023-09-12T11:37:36;99493.97;;;20.60;90.30
59055;BME280;44845;51.444;7.460;2023-09-12T11:42:39;99490.72;;;20.71;88.89
59055;BME280;44845;51.444;7.460;2023-09-12T11:45:08;99493.47;;;20.69;87.54
59055;BME280;44845;51.444;7.460;2023-09-12T11:47:33;99504.72;;;20.91;85.87
59055;BME280;44845;51.444;7.460;2023-09-12T11:49:59;99497.22;;;20.98;85.49
59055;BME280;44845;51.444;7.460;2023-09-12T11:52:24;99499.28;;;20.92;85.02
59055;BME280;44845;51.444;7.460;2023-09-12T11:54:49;99505.13;;;20.99;83.23
59055;BME280;44845;51.444;7.460;2023-09-12T11:57:15;99498.25;;;20.95;83.77
59055;BME280;44845;51.444;7.460;2023-09-12T11:59:42;99497.41;;;21.11;80.24
59055;BME280;44845;51.444;7.460;2023-09-12T12:02:10;99492.84;;;21.13;79.10
59055;BME280;44845;51.444;7.460;2023-09-12T12:04:37;99495.69;;;21.10;79.07
59055;BME280;44845;51.444;7.460;2023-09-12T12:07:03;99490.34;;;21.10;80.90
59055;BME280;44845;51.444;7.460;2023-09-12T12:09:32;99494.38;;;21.17;80.47
59055;BME280;44845;51.444;7.460;2023-09-12T12:12:24;99497.75;;;21.21;80.34
59055;BME280;44845;51.444;7.460;2023-09-12T12:14:50;99503.25;;;21.18;81.61
59055;BME280;44845;51.444;7.460;2023-09-12T12:17:15;99488.28;;;21.15;81.16
59055;BME280;44845;51.444;7.460;2023-09-12T12:19:45;99484.84;;;21.13;80.97
59055;BME280;44845;51.444;7.460;2023-09-12T12:22:10;99477.03;;;21.10;82.31
59055;BME280;44845;51.444;7.460;2023-09-12T12:24:40;99475.81;;;21.15;80.83
59055;BME280;44845;51.444;7.460;2023-09-12T12:27:06;99474.34;;;21.10;80.91
59055;BME280;44845;51.444;7.460;2023-09-12T12:29:34;99474.50;;;21.23;80.83
59055;BME280;44845;51.444;7.460;2023-09-12T12:32:03;99477.44;;;21.18;80.88
59055;BME280;44845;51.444;7.460;2023-09-12T12:34:30;99474.19;;;21.13;84.06
59055;BME280;44845;51.444;7.460;2023-09-12T12:36:56;99476.44;;;21.04;81.98
59055;BME280;44845;51.444;7.460;2023-09-12T12:39:22;99473.00;;;21.02;82.26
59055;BME280;44845;51.444;7.460;2023-09-12T12:41:48;99479.50;;;20.97;81.82
59055;BME280;44845;51.444;7.460;2023-09-12T12:44:13;99472.66;;;21.09;80.86
59055;BME280;44845;51.444;7.460;2023-09-12T12:46:53;99459.34;;;21.09;80.65
59055;BME280;44845;51.444;7.460;2023-09-12T12:49:19;99456.47;;;21.12;80.92
59055;BME280;44845;51.444;7.460;2023-09-12T12:51:45;99459.53;;;21.20;80.69
59055;BME280;44845;51.444;7.460;2023-09-12T12:54:12;99455.19;;;21.34;79.74
59055;BME280;44845;51.444;7.460;2023-09-12T12:56:38;99443.59;;;21.35;80.22
59055;BME280;44845;51.444;7.460;2023-09-12T12:59:05;99453.50;;;21.33;79.60
59055;BME280;44845;51.444;7.460;2023-09-12T13:01:35;99445.06;;;21.24;80.29
59055;BME280;44845;51.444;7.460;2023-09-12T13:04:01;99452.47;;;21.19;80.94
59055;BME280;44845;51.444;7.460;2023-09-12T13:06:26;99447.34;;;21.16;82.22
59055;BME280;44845;51.444;7.460;2023-09-12T13:08:55;99444.59;;;21.18;82.76
59055;BME280;44845;51.444;7.460;2023-09-12T13:11:22;99442.06;;;21.31;79.34
59055;BME280;44845;51.444;7.460;2023-09-12T13:13:48;99437.78;;;21.28;80.01